sensor_id;sensor_type;location;lat;lon;timestamp;pressure;altitude;pressure_sealevel;temperature;humidity
58018;BME280;43810;50.860;19.226;2023-03-16T00:01:19;98839.97;;;-0.93;83.53
58018;BME280;43810;50.860;19.226;2023-03-16T00:03:46;98840.97;;;-0.99;83.80
58018;BME280;43810;50.860;19.226;2023-03-16T00:06:12;98844.59;;;-1.00;83.48
58018;BME280;43810;50.860;19.226;2023-03-16T00:08:38;98846.41;;;-1.00;83.68
58018;BME280;43810;50.860;19.226;2023-03-16T00:11:04;98843.03;;;-1.01;83.84
58018;BME280;43810;50.860;19.226;2023-03-16T00:13:30;98849.81;;;-1.00;83.65
58018;BME280;43810;50.860;19.226;2023-03-16T00:15:59;98852.72;;;-0.96;83.69
58018;BME280;43810;50.860;19.226;2023-03-16T00:18:26;98856.09;;;-0.96;83.43
58018;BME280;43810;50.860;19.226;2023-03-16T00:20:57;98850.84;;;-1.01;83.76
58018;BME280;43810;50.860;19.226;2023-03-16T00:23:24;98847.75;;;-0.98;83.70
58018;BME280;43810;50.860;19.226;2023-03-16T00:25:58;98854.16;;;-1.10;84.06
58018;BME280;43810;50.860;19.226;2023-03-16T00:28:25;98852.03;;;-1.13;84.62
58018;BME280;43810;50.860;19.226;2023-03-16T00:30:52;98861.66;;;-1.14;84.37
58018;BME280;43810;50.860;19.226;2023-03-16T00:33:24;98861.47;;;-1.07;84.05
58018;BME280;43810;50.860;19.226;2023-03-16T00:35:49;98855.19;;;-1.11;84.33
58018;BME280;43810;50.860;19.226;2023-03-16T00:38:16;98857.47;;;-1.15;84.12
58018;BME280;43810;50.860;19.226;2023-03-16T00:40:43;98853.72;;;-1.24;84.32
58018;BME280;43810;50.860;19.226;2023-03-16T00:43:10;98859.91;;;-1.30;84.51
58018;BME280;43810;50.860;19.226;2023-03-16T00:45:36;98855.31;;;-1.23;84.32
58018;BME280;43810;50.860;19.226;2023-03-16T00:48:02;98847.00;;;-1.20;84.51
58018;BME280;43810;50.860;19.226;2023-03-16T00:50:28;98849.63;;;-1.20;84.53
58018;BME280;43810;50.860;19.226;2023-03-16T00:52:54;98849.91;;;-1.16;84.37
58018;BME280;43810;50.860;19.226;2023-03-16T00:55:20;98854.31;;;-1.17;84.18
58018;BME280;43810;50.860;19.226;2023-03-16T00:57:48;98854.88;;;-1.15;84.28
58018;BME280;43810;50.860;19.226;2023-03-16T01:00:17;98853.50;;;-1.23;84.35
58018;BME280;43810;50.860;19.226;2023-03-16T01:02:45;98852.63;;;-1.28;84.63
58018;BME280;43810;50.860;19.226;2023-03-16T01:05:12;98842.22;;;-1.28;84.61
58018;BME280;43810;50.860;19.226;2023-03-16T01:07:39;98862.22;;;-1.34;84.69
58018;BME280;43810;50.860;19.226;2023-03-16T01:10:08;98846.88;;;-1.30;84.66
58018;BME280;43810;50.860;19.226;2023-03-16T01:12:34;98856.00;;;-1.33;84.34
58018;BME280;43810;50.860;19.226;2023-03-16T01:15:00;98857.31;;;-1.30;84.70
58018;BME280;43810;50.860;19.226;2023-03-16T01:17:26;98846.88;;;-1.30;84.68
58018;BME280;43810;50.860;19.226;2023-03-16T01:19:52;98855.00;;;-1.27;84.87
58018;BME280;43810;50.860;19.226;2023-03-16T01:22:18;98857.81;;;-1.33;84.69
58018;BME280;43810;50.860;19.226;2023-03-16T01:24:44;98858.34;;;-1.31;84.99
58018;BME280;43810;50.860;19.226;2023-03-16T01:27:11;98856.59;;;-1.26;84.65
58018;BME280;43810;50.860;19.226;2023-03-16T01:29:39;98861.56;;;-1.24;84.63
58018;BME280;43810;50.860;19.226;2023-03-16T01:32:06;98854.28;;;-1.22;84.63
58018;BME280;43810;50.860;19.226;2023-03-16T01:34:33;98855.78;;;-1.26;84.67
58018;BME280;43810;50.860;19.226;2023-03-16T01:36:59;98853.19;;;-1.26;84.80
58018;BME280;43810;50.860;19.226;2023-03-16T01:39:25;98857.06;;;-1.29;84.75
58018;BME280;43810;50.860;19.226;2023-03-16T01:41:51;98863.31;;;-1.30;84.59
58018;BME280;43810;50.860;19.226;2023-03-16T01:44:23;98860.47;;;-1.28;84.64
58018;BME280;43810;50.860;19.226;2023-03-16T01:46:52;98875.03;;;-1.32;84.88
58018;BME280;43810;50.860;19.226;2023-03-16T01:54:34;98865.06;;;-1.35;84.83
58018;BME280;43810;50.860;19.226;2023-03-16T02:00:05;98875.53;;;-1.30;85.50
58018;BME280;43810;50.860;19.226;2023-03-16T02:02:35;98876.78;;;-1.38;85.74
58018;BME280;43810;50.860;19.226;2023-03-16T02:05:22;98879.94;;;-1.36;85.57
58018;BME280;43810;50.860;19.226;2023-03-16T02:07:51;98882.06;;;-1.33;85.33
58018;BME280;43810;50.860;19.226;2023-03-16T02:10:25;98874.00;;;-1.31;85.21
58018;BME280;43810;50.860;19.226;2023-03-16T02:12:53;98880.75;;;-1.30;85.06
58018;BME280;43810;50.860;19.226;2023-03-16T02:15:20;98881.75;;;-1.36;85.12
58018;BME280;43810;50.860;19.226;2023-03-16T02:17:46;98882.78;;;-1.37;85.44
58018;BME280;43810;50.860;19.226;2023-03-16T02:20:21;98885.94;;;-1.35;85.65
58018;BME280;43810;50.860;19.226;2023-03-16T02:22:50;98888.41;;;-1.45;85.57
58018;BME280;43810;50.860;19.226;2023-03-16T02:25:23;98889.44;;;-1.46;85.50
58018;BME280;43810;50.860;19.226;2023-03-16T02:28:07;98896.78;;;-1.43;85.26
58018;BME280;43810;50.860;19.226;2023-03-16T02:30:35;98903.03;;;-1.44;85.21
58018;BME280;43810;50.860;19.226;2023-03-16T02:33:02;98890.13;;;-1.56;85.45
58018;BME280;43810;50.860;19.226;2023-03-16T02:35:30;98898.22;;;-1.52;85.54
58018;BME280;43810;50.860;19.226;2023-03-16T02:37:56;98901.44;;;-1.45;85.32
58018;BME280;43810;50.860;19.226;2023-03-16T02:40:29;98919.13;;;-1.47;85.42
58018;BME280;43810;50.860;19.226;2023-03-16T02:42:59;98914.59;;;-1.57;85.42
58018;BME280;43810;50.860;19.226;2023-03-16T02:48:07;98919.44;;;-1.44;85.41
58018;BME280;43810;50.860;19.226;2023-03-16T02:50:34;98926.88;;;-1.52;85.62
58018;BME280;43810;50.860;19.226;2023-03-16T02:52:59;98931.13;;;-1.46;85.48
58018;BME280;43810;50.860;19.226;2023-03-16T02:55:25;98934.78;;;-1.47;85.61
58018;BME280;43810;50.860;19.226;2023-03-16T02:57:51;98933.91;;;-1.53;85.78
58018;BME280;43810;50.860;19.226;2023-03-16T03:00:17;98931.56;;;-1.54;85.87
58018;BME280;43810;50.860;19.226;2023-03-16T03:02:44;98932.88;;;-1.52;85.50
58018;BME280;43810;50.860;19.226;2023-03-16T03:05:11;98940.22;;;-1.49;85.53
58018;BME280;43810;50.860;19.226;2023-03-16T03:07:37;98940.94;;;-1.53;85.56
58018;BME280;43810;50.860;19.226;2023-03-16T03:10:05;98937.28;;;-1.52;85.68
58018;BME280;43810;50.860;19.226;2023-03-16T03:12:32;98945.09;;;-1.52;85.34
58018;BME280;43810;50.860;19.226;2023-03-16T03:14:59;98951.34;;;-1.53;85.44
58018;BME280;43810;50.860;19.226;2023-03-16T03:17:24;98945.91;;;-1.52;85.55
58018;BME280;43810;50.860;19.226;2023-03-16T03:19:59;98943.28;;;-1.52;85.32
58018;BME280;43810;50.860;19.226;2023-03-16T03:22:27;98951.63;;;-1.55;85.57
58018;BME280;43810;50.860;19.226;2023-03-16T03:24:53;98946.88;;;-1.58;85.54
58018;BME280;43810;50.860;19.226;2023-03-16T03:27:19;98946.94;;;-1.53;85.46
58018;BME280;43810;50.860;19.226;2023-03-16T03:29:47;98957.19;;;-1.46;85.23
58018;BME280;43810;50.860;19.226;2023-03-16T03:32:12;98953.00;;;-1.47;85.39
58018;BME280;43810;50.860;19.226;2023-03-16T03:34:38;98950.63;;;-1.49;85.37
58018;BME280;43810;50.860;19.226;2023-03-16T03:37:04;98957.13;;;-1.51;85.34
58018;BME280;43810;50.860;19.226;2023-03-16T03:39:30;98965.16;;;-1.53;85.64
58018;BME280;43810;50.860;19.226;2023-03-16T03:41:56;98962.31;;;-1.51;85.34
58018;BME280;43810;50.860;19.226;2023-03-16T03:44:22;98964.47;;;-1.48;84.93
58018;BME280;43810;50.860;19.226;2023-03-16T03:46:48;98969.06;;;-1.56;84.92
58018;BME280;43810;50.860;19.226;2023-03-16T03:49:16;98971.47;;;-1.49;84.71
58018;BME280;43810;50.860;19.226;2023-03-16T03:51:42;98964.38;;;-1.53;84.75
58018;BME280;43810;50.860;19.226;2023-03-16T03:54:09;98984.69;;;-1.56;84.88
58018;BME280;43810;50.860;19.226;2023-03-16T03:56:35;98978.97;;;-1.52;85.01
58018;BME280;43810;50.860;19.226;2023-03-16T03:59:01;98981.84;;;-1.54;84.91
58018;BME280;43810;50.860;19.226;2023-03-16T04:01:27;98984.97;;;-1.52;85.19
58018;BME280;43810;50.860;19.226;2023-03-16T04:03:53;98989.91;;;-1.56;85.24
58018;BME280;43810;50.860;19.226;2023-03-16T04:06:19;98988.88;;;-1.54;85.38
58018;BME280;43810;50.860;19.226;2023-03-16T04:08:45;98986.28;;;-1.54;85.27
58018;BME280;43810;50.860;19.226;2023-03-16T04:11:10;98984.47;;;-1.54;85.29
58018;BME280;43810;50.860;19.226;2023-03-16T04:13:36;98993.53;;;-1.57;85.17
58018;BME280;43810;50.860;19.226;2023-03-16T04:16:02;98989.34;;;-1.58;84.93
58018;BME280;43810;50.860;19.226;2023-03-16T04:18:29;98991.97;;;-1.58;85.05
58018;BME280;43810;50.860;19.226;2023-03-16T04:21:06;98993.22;;;-1.60;84.78
58018;BME280;43810;50.860;19.226;2023-03-16T04:23:33;99003.88;;;-1.62;85.00
58018;BME280;43810;50.860;19.226;2023-03-16T04:26:00;98991.16;;;-1.58;84.74
58018;BME280;43810;50.860;19.226;2023-03-16T04:28:26;98995.72;;;-1.65;84.95
58018;BME280;43810;50.860;19.226;2023-03-16T04:30:52;98998.09;;;-1.64;84.92
58018;BME280;43810;50.860;19.226;2023-03-16T04:33:21;98990.28;;;-1.64;84.81
58018;BME280;43810;50.860;19.226;2023-03-16T04:35:47;98999.13;;;-1.65;84.72
58018;BME280;43810;50.860;19.226;2023-03-16T04:38:13;98995.25;;;-1.62;84.48
58018;BME280;43810;50.860;19.226;2023-03-16T04:40:39;98994.19;;;-1.66;84.67
58018;BME280;43810;50.860;19.226;2023-03-16T04:43:05;98998.91;;;-1.63;84.69
58018;BME280;43810;50.860;19.226;2023-03-16T04:45:31;98999.63;;;-1.68;84.63
58018;BME280;43810;50.860;19.226;2023-03-16T04:47:57;99015.72;;;-1.71;84.70
58018;BME280;43810;50.860;19.226;2023-03-16T04:50:23;99008.16;;;-1.72;84.81
58018;BME280;43810;50.860;19.226;2023-03-16T04:52:50;99001.53;;;-1.80;84.73
58018;BME280;43810;50.860;19.226;2023-03-16T04:55:16;99006.16;;;-1.99;84.46
58018;BME280;43810;50.860;19.226;2023-03-16T04:57:42;99005.47;;;-1.94;85.22
58018;BME280;43810;50.860;19.226;2023-03-16T05:00:08;99010.97;;;-2.07;85.28
58018;BME280;43810;50.860;19.226;2023-03-16T05:02:36;99011.38;;;-2.15;85.23
58018;BME280;43810;50.860;19.226;2023-03-16T05:05:03;99009.84;;;-2.28;85.22
58018;BME280;43810;50.860;19.226;2023-03-16T05:07:30;99012.44;;;-2.11;85.51
58018;BME280;43810;50.860;19.226;2023-03-16T05:09:56;99018.31;;;-2.04;85.13
58018;BME280;43810;50.860;19.226;2023-03-16T05:12:22;99021.78;;;-2.15;85.09
58018;BME280;43810;50.860;19.226;2023-03-16T05:14:48;99022.16;;;-2.23;85.56
58018;BME280;43810;50.860;19.226;2023-03-16T05:17:14;99020.53;;;-2.13;85.69
58018;BME280;43810;50.860;19.226;2023-03-16T05:19:40;99028.50;;;-2.03;85.25
58018;BME280;43810;50.860;19.226;2023-03-16T05:22:07;99029.22;;;-1.90;84.81
58018;BME280;43810;50.860;19.226;2023-03-16T05:24:33;99037.44;;;-1.82;84.34
58018;BME280;43810;50.860;19.226;2023-03-16T05:26:59;99036.25;;;-1.74;84.31
58018;BME280;43810;50.860;19.226;2023-03-16T05:29:28;99037.13;;;-1.69;84.42
58018;BME280;43810;50.860;19.226;2023-03-16T05:31:57;99046.72;;;-1.52;84.48
58018;BME280;43810;50.860;19.226;2023-03-16T05:34:23;99046.91;;;-1.42;83.85
58018;BME280;43810;50.860;19.226;2023-03-16T05:36:49;99041.13;;;-1.44;84.41
58018;BME280;43810;50.860;19.226;2023-03-16T05:39:15;99047.28;;;-1.34;84.16
58018;BME280;43810;50.860;19.226;2023-03-16T05:41:41;99046.88;;;-1.26;84.06
58018;BME280;43810;50.860;19.226;2023-03-16T05:44:07;99055.97;;;-1.06;83.52
58018;BME280;43810;50.860;19.226;2023-03-16T05:46:33;99059.28;;;-0.94;83.13
58018;BME280;43810;50.860;19.226;2023-03-16T05:48:59;99058.63;;;-0.85;82.90
58018;BME280;43810;50.860;19.226;2023-03-16T05:51:25;99065.00;;;-0.75;82.61
58018;BME280;43810;50.860;19.226;2023-03-16T05:53:52;99055.72;;;-0.66;82.36
58018;BME280;43810;50.860;19.226;2023-03-16T05:56:25;99062.03;;;-0.62;82.26
58018;BME280;43810;50.860;19.226;2023-03-16T05:58:52;99069.91;;;-0.57;82.01
58018;BME280;43810;50.860;19.226;2023-03-16T06:01:19;99078.66;;;-0.47;81.52
58018;BME280;43810;50.860;19.226;2023-03-16T06:03:46;99086.19;;;-0.50;81.65
58018;BME280;43810;50.860;19.226;2023-03-16T06:06:15;99074.75;;;-0.44;82.00
58018;BME280;43810;50.860;19.226;2023-03-16T06:08:42;99078.50;;;-0.35;81.54
58018;BME280;43810;50.860;19.226;2023-03-16T06:11:09;99082.78;;;-0.29;81.37
58018;BME280;43810;50.860;19.226;2023-03-16T06:13:36;99087.50;;;-0.26;81.33
58018;BME280;43810;50.860;19.226;2023-03-16T06:16:03;99090.16;;;-0.21;81.57
58018;BME280;43810;50.860;19.226;2023-03-16T06:18:31;99091.06;;;-0.10;81.47
58018;BME280;43810;50.860;19.226;2023-03-16T06:20:58;99089.56;;;-0.01;80.91
58018;BME280;43810;50.860;19.226;2023-03-16T06:23:23;99094.56;;;0.01;80.58
58018;BME280;43810;50.860;19.226;2023-03-16T06:25:49;99098.16;;;-0.05;80.89
58018;BME280;43810;50.860;19.226;2023-03-16T06:28:16;99098.16;;;-0.05;81.35
58018;BME280;43810;50.860;19.226;2023-03-16T06:30:42;99101.06;;;-0.02;81.38
58018;BME280;43810;50.860;19.226;2023-03-16T06:33:07;99096.47;;;0.10;80.97
58018;BME280;43810;50.860;19.226;2023-03-16T06:35:33;99113.53;;;0.18;81.22
58018;BME280;43810;50.860;19.226;2023-03-16T06:37:59;99103.97;;;0.29;81.05
58018;BME280;43810;50.860;19.226;2023-03-16T06:40:25;99112.94;;;0.38;80.82
58018;BME280;43810;50.860;19.226;2023-03-16T06:42:51;99108.28;;;0.45;80.24
58018;BME280;43810;50.860;19.226;2023-03-16T06:45:17;99110.16;;;0.49;80.23
58018;BME280;43810;50.860;19.226;2023-03-16T06:47:47;99111.75;;;0.55;80.03
58018;BME280;43810;50.860;19.226;2023-03-16T06:50:13;99121.72;;;0.58;79.93
58018;BME280;43810;50.860;19.226;2023-03-16T06:52:39;99119.16;;;0.63;79.95
58018;BME280;43810;50.860;19.226;2023-03-16T06:55:06;99117.13;;;0.71;79.88
58018;BME280;43810;50.860;19.226;2023-03-16T06:57:32;99118.22;;;0.80;79.53
58018;BME280;43810;50.860;19.226;2023-03-16T06:59:59;99122.63;;;0.74;79.36
58018;BME280;43810;50.860;19.226;2023-03-16T07:02:25;99123.69;;;0.78;79.70
58018;BME280;43810;50.860;19.226;2023-03-16T07:05:09;99126.19;;;0.95;80.08
58018;BME280;43810;50.860;19.226;2023-03-16T07:07:41;99122.06;;;1.04;79.03
58018;BME280;43810;50.860;19.226;2023-03-16T07:10:14;99129.34;;;1.02;79.21
58018;BME280;43810;50.860;19.226;2023-03-16T07:12:45;99138.84;;;1.13;79.54
58018;BME280;43810;50.860;19.226;2023-03-16T07:15:11;99135.97;;;1.10;78.79
58018;BME280;43810;50.860;19.226;2023-03-16T07:17:40;99132.50;;;1.04;79.72
58018;BME280;43810;50.860;19.226;2023-03-16T07:20:08;99135.97;;;1.10;80.16
58018;BME280;43810;50.860;19.226;2023-03-16T07:22:40;99136.53;;;1.17;79.46
58018;BME280;43810;50.860;19.226;2023-03-16T07:25:07;99137.16;;;1.34;79.50
58018;BME280;43810;50.860;19.226;2023-03-16T07:27:37;99133.34;;;1.57;78.60
58018;BME280;43810;50.860;19.226;2023-03-16T07:30:04;99139.66;;;1.71;78.88
58018;BME280;43810;50.860;19.226;2023-03-16T07:32:32;99142.06;;;1.78;77.84
58018;BME280;43810;50.860;19.226;2023-03-16T07:34:58;99140.75;;;1.85;77.14
58018;BME280;43810;50.860;19.226;2023-03-16T07:37:25;99138.97;;;1.96;76.54
58018;BME280;43810;50.860;19.226;2023-03-16T07:39:51;99136.09;;;2.07;77.22
58018;BME280;43810;50.860;19.226;2023-03-16T07:42:19;99140.34;;;2.29;76.91
58018;BME280;43810;50.860;19.226;2023-03-16T07:44:47;99143.78;;;2.50;76.23
58018;BME280;43810;50.860;19.226;2023-03-16T07:47:16;99149.28;;;2.63;75.15
58018;BME280;43810;50.860;19.226;2023-03-16T07:49:43;99149.81;;;2.75;74.55
58018;BME280;43810;50.860;19.226;2023-03-16T07:52:10;99150.63;;;2.71;74.54
58018;BME280;43810;50.860;19.226;2023-03-16T07:54:39;99145.38;;;2.71;74.04
58018;BME280;43810;50.860;19.226;2023-03-16T07:57:06;99150.34;;;2.77;75.42
58018;BME280;43810;50.860;19.226;2023-03-16T07:59:35;99148.75;;;3.02;73.10
58018;BME280;43810;50.860;19.226;2023-03-16T08:02:01;99150.31;;;3.18;73.04
58018;BME280;43810;50.860;19.226;2023-03-16T08:04:28;99146.84;;;3.33;73.77
58018;BME280;43810;50.860;19.226;2023-03-16T08:06:54;99151.53;;;3.56;72.37
58018;BME280;43810;50.860;19.226;2023-03-16T08:09:25;99154.38;;;3.75;72.71
58018;BME280;43810;50.860;19.226;2023-03-16T08:11:52;99157.94;;;3.94;71.22
58018;BME280;43810;50.860;19.226;2023-03-16T08:14:18;99155.63;;;3.87;71.12
58018;BME280;43810;50.860;19.226;2023-03-16T08:16:45;99147.13;;;4.01;72.36
58018;BME280;43810;50.860;19.226;2023-03-16T08:19:12;99152.03;;;4.17;69.34
58018;BME280;43810;50.860;19.226;2023-03-16T08:21:41;99155.97;;;4.20;69.54
58018;BME280;43810;50.860;19.226;2023-03-16T08:24:08;99159.34;;;4.31;69.81
58018;BME280;43810;50.860;19.226;2023-03-16T08:26:40;99165.97;;;4.23;68.07
58018;BME280;43810;50.860;19.226;2023-03-16T08:29:06;99167.63;;;4.09;69.49
58018;BME280;43810;50.860;19.226;2023-03-16T08:31:32;99163.78;;;3.86;69.31
58018;BME280;43810;50.860;19.226;2023-03-16T08:34:00;99162.16;;;3.90;70.23
58018;BME280;43810;50.860;19.226;2023-03-16T08:36:27;99164.78;;;3.95;70.71
58018;BME280;43810;50.860;19.226;2023-03-16T08:38:54;99168.97;;;3.96;68.73
58018;BME280;43810;50.860;19.226;2023-03-16T08:41:21;99166.75;;;4.18;68.92
58018;BME280;43810;50.860;19.226;2023-03-16T08:43:48;99166.63;;;4.39;69.20
58018;BME280;43810;50.860;19.226;2023-03-16T08:46:14;99169.25;;;4.44;67.55
58018;BME280;43810;50.860;19.226;2023-03-16T08:48:41;99168.59;;;4.62;67.53
58018;BME280;43810;50.860;19.226;2023-03-16T08:51:09;99169.81;;;4.75;67.59
58018;BME280;43810;50.860;19.226;2023-03-16T08:53:35;99174.97;;;4.90;66.82
58018;BME280;43810;50.860;19.226;2023-03-16T08:56:06;99173.59;;;4.92;65.97
58018;BME280;43810;50.860;19.226;2023-03-16T08:58:33;99178.88;;;5.26;65.80
58018;BME280;43810;50.860;19.226;2023-03-16T09:01:02;99173.88;;;5.25;63.94
58018;BME280;43810;50.860;19.226;2023-03-16T09:03:33;99181.13;;;5.38;65.28
58018;BME280;43810;50.860;19.226;2023-03-16T09:06:03;99184.34;;;5.30;65.75
58018;BME280;43810;50.860;19.226;2023-03-16T09:08:30;99181.34;;;5.65;65.28
58018;BME280;43810;50.860;19.226;2023-03-16T09:11:01;99185.72;;;6.18;64.58
58018;BME280;43810;50.860;19.226;2023-03-16T09:13:29;99190.59;;;6.29;63.18
58018;BME280;43810;50.860;19.226;2023-03-16T09:15:56;99181.47;;;6.40;64.23
58018;BME280;43810;50.860;19.226;2023-03-16T09:18:23;99189.22;;;6.69;61.43
58018;BME280;43810;50.860;19.226;2023-03-16T09:21:02;99191.56;;;6.33;60.59
58018;BME280;43810;50.860;19.226;2023-03-16T09:23:29;99193.94;;;6.35;62.54
58018;BME280;43810;50.860;19.226;2023-03-16T09:26:01;99188.72;;;6.49;60.73
58018;BME280;43810;50.860;19.226;2023-03-16T09:28:28;99193.22;;;6.29;61.17
58018;BME280;43810;50.860;19.226;2023-03-16T09:30:57;99197.25;;;6.03;60.12
58018;BME280;43810;50.860;19.226;2023-03-16T09:33:25;99198.09;;;5.74;61.44
58018;BME280;43810;50.860;19.226;2023-03-16T09:35:53;99200.44;;;6.00;61.95
58018;BME280;43810;50.860;19.226;2023-03-16T09:38:22;99188.66;;;6.35;60.76
58018;BME280;43810;50.860;19.226;2023-03-16T09:41:02;99195.47;;;5.74;58.76
58018;BME280;43810;50.860;19.226;2023-03-16T09:43:47;99201.00;;;5.25;61.75
58018;BME280;43810;50.860;19.226;2023-03-16T09:48:50;99201.31;;;5.71;59.65
58018;BME280;43810;50.860;19.226;2023-03-16T09:54:01;99195.06;;;6.47;61.17
58018;BME280;43810;50.860;19.226;2023-03-16T09:56:33;99197.50;;;6.44;60.38
58018;BME280;43810;50.860;19.226;2023-03-16T09:59:01;99201.31;;;5.95;57.99
58018;BME280;43810;50.860;19.226;2023-03-16T10:01:56;99202.94;;;5.67;60.17
58018;BME280;43810;50.860;19.226;2023-03-16T10:07:12;99197.44;;;6.30;57.43
58018;BME280;43810;50.860;19.226;2023-03-16T10:12:42;99200.28;;;6.34;57.28
58018;BME280;43810;50.860;19.226;2023-03-16T10:15:19;99203.66;;;5.97;55.83
58018;BME280;43810;50.860;19.226;2023-03-16T10:17:57;99199.56;;;6.28;57.60
58018;BME280;43810;50.860;19.226;2023-03-16T10:20:30;99202.44;;;6.88;54.92
58018;BME280;43810;50.860;19.226;2023-03-16T10:22:59;99198.72;;;7.35;55.02
58018;BME280;43810;50.860;19.226;2023-03-16T10:25:48;99194.34;;;7.85;52.46
58018;BME280;43810;50.860;19.226;2023-03-16T10:28:21;99202.78;;;7.74;48.81
58018;BME280;43810;50.860;19.226;2023-03-16T10:30:50;99198.16;;;7.52;52.63
58018;BME280;43810;50.860;19.226;2023-03-16T10:33:31;99202.97;;;7.64;49.19
58018;BME280;43810;50.860;19.226;2023-03-16T10:36:16;99206.84;;;7.25;50.66
58018;BME280;43810;50.860;19.226;2023-03-16T10:38:52;99207.34;;;6.95;50.73
58018;BME280;43810;50.860;19.226;2023-03-16T10:41:26;99210.44;;;6.64;51.60
58018;BME280;43810;50.860;19.226;2023-03-16T10:46:26;99205.84;;;5.90;54.40
58018;BME280;43810;50.860;19.226;2023-03-16T10:48:58;99215.69;;;5.60;53.06
58018;BME280;43810;50.860;19.226;2023-03-16T10:51:29;99209.63;;;5.60;53.55
58018;BME280;43810;50.860;19.226;2023-03-16T10:54:06;99217.03;;;6.24;53.67
58018;BME280;43810;50.860;19.226;2023-03-16T10:56:36;99206.88;;;7.06;51.40
58018;BME280;43810;50.860;19.226;2023-03-16T10:59:19;99201.03;;;7.09;50.03
58018;BME280;43810;50.860;19.226;2023-03-16T11:01:50;99209.34;;;6.65;52.68
58018;BME280;43810;50.860;19.226;2023-03-16T11:04:18;99216.69;;;6.50;51.97
58018;BME280;43810;50.860;19.226;2023-03-16T11:07:05;99210.06;;;6.71;52.99
58018;BME280;43810;50.860;19.226;2023-03-16T11:09:35;99211.28;;;6.97;51.37
58018;BME280;43810;50.860;19.226;2023-03-16T11:12:13;99206.34;;;6.72;50.58
58018;BME280;43810;50.860;19.226;2023-03-16T11:14:44;99211.28;;;6.60;52.89
58018;BME280;43810;50.860;19.226;2023-03-16T11:17:16;99206.06;;;6.55;51.74
58018;BME280;43810;50.860;19.226;2023-03-16T11:19:51;99211.84;;;6.19;52.31
58018;BME280;43810;50.860;19.226;2023-03-16T11:22:26;99208.22;;;5.91;52.44
58018;BME280;43810;50.860;19.226;2023-03-16T11:30:09;99201.06;;;6.91;49.93
58018;BME280;43810;50.860;19.226;2023-03-16T11:32:40;99195.13;;;7.31;50.16
58018;BME280;43810;50.860;19.226;2023-03-16T11:35:14;99203.94;;;7.40;46.47
58018;BME280;43810;50.860;19.226;2023-03-16T11:41:09;99198.38;;;7.69;48.16
58018;BME280;43810;50.860;19.226;2023-03-16T11:48:28;99204.16;;;7.99;48.79
58018;BME280;43810;50.860;19.226;2023-03-16T11:51:04;99196.91;;;7.90;49.19
58018;BME280;43810;50.860;19.226;2023-03-16T11:56:54;99190.00;;;8.17;46.66
58018;BME280;43810;50.860;19.226;2023-03-16T12:02:22;99186.25;;;8.32;49.04
58018;BME280;43810;50.860;19.226;2023-03-16T12:08:28;99196.00;;;7.95;47.09
58018;BME280;43810;50.860;19.226;2023-03-16T12:11:09;99192.69;;;8.03;45.57
58018;BME280;43810;50.860;19.226;2023-03-16T12:19:19;99197.00;;;7.72;40.53
58018;BME280;43810;50.860;19.226;2023-03-16T12:21:56;99200.84;;;7.79;41.05
58018;BME280;43810;50.860;19.226;2023-03-16T12:24:34;99194.84;;;7.60;41.29
58018;BME280;43810;50.860;19.226;2023-03-16T12:27:04;99193.06;;;7.69;38.22
58018;BME280;43810;50.860;19.226;2023-03-16T12:29:40;99188.75;;;8.14;39.63
58018;BME280;43810;50.860;19.226;2023-03-16T12:32:41;99186.31;;;8.76;39.83
58018;BME280;43810;50.860;19.226;2023-03-16T12:48:54;99192.56;;;8.08;42.08
58018;BME280;43810;50.860;19.226;2023-03-16T12:51:38;99196.88;;;8.18;43.50
58018;BME280;43810;50.860;19.226;2023-03-16T12:54:21;99193.56;;;8.84;40.46
58018;BME280;43810;50.860;19.226;2023-03-16T12:56:49;99184.66;;;9.11;38.43
58018;BME280;43810;50.860;19.226;2023-03-16T12:59:20;99198.97;;;9.02;39.09
58018;BME280;43810;50.860;19.226;2023-03-16T13:01:58;99202.16;;;8.90;38.75
58018;BME280;43810;50.860;19.226;2023-03-16T13:04:34;99191.69;;;8.26;40.46
58018;BME280;43810;50.860;19.226;2023-03-16T13:07:24;99193.06;;;7.69;42.00
58018;BME280;43810;50.860;19.226;2023-03-16T13:09:59;99189.75;;;7.50;42.22
58018;BME280;43810;50.860;19.226;2023-03-16T13:12:32;99199.25;;;7.51;41.92
58018;BME280;43810;50.860;19.226;2023-03-16T13:15:21;99191.50;;;7.41;41.32
58018;BME280;43810;50.860;19.226;2023-03-16T13:21:17;99197.19;;;8.97;37.99
58018;BME280;43810;50.860;19.226;2023-03-16T13:23:58;99195.03;;;8.77;38.22
58018;BME280;43810;50.860;19.226;2023-03-16T13:29:27;99195.75;;;8.69;40.64
58018;BME280;43810;50.860;19.226;2023-03-16T13:31:56;99201.16;;;9.30;39.67
58018;BME280;43810;50.860;19.226;2023-03-16T13:34:38;99199.38;;;9.17;40.39
58018;BME280;43810;50.860;19.226;2023-03-16T13:37:12;99187.63;;;9.10;39.01
58018;BME280;43810;50.860;19.226;2023-03-16T13:39:51;99194.59;;;9.50;37.94
58018;BME280;43810;50.860;19.226;2023-03-16T13:42:20;99204.38;;;9.89;38.41
58018;BME280;43810;50.860;19.226;2023-03-16T13:44:47;99203.97;;;10.04;36.02
58018;BME280;43810;50.860;19.226;2023-03-16T13:47:14;99193.22;;;8.86;38.53
58018;BME280;43810;50.860;19.226;2023-03-16T13:49:46;99202.97;;;8.05;40.74
58018;BME280;43810;50.860;19.226;2023-03-16T13:52:27;99189.38;;;7.57;41.73
58018;BME280;43810;50.860;19.226;2023-03-16T13:54:56;99188.63;;;7.24;41.98
58018;BME280;43810;50.860;19.226;2023-03-16T13:57:25;99193.41;;;7.08;43.20
58018;BME280;43810;50.860;19.226;2023-03-16T14:00:02;99193.34;;;6.94;44.59
58018;BME280;43810;50.860;19.226;2023-03-16T14:02:30;99191.19;;;6.77;44.18
58018;BME280;43810;50.860;19.226;2023-03-16T14:04:56;99194.94;;;6.76;45.42
58018;BME280;43810;50.860;19.226;2023-03-16T14:07:21;99193.75;;;6.82;44.80
58018;BME280;43810;50.860;19.226;2023-03-16T14:09:49;99197.56;;;6.76;44.86
58018;BME280;43810;50.860;19.226;2023-03-16T14:12:18;99187.44;;;7.16;44.40
58018;BME280;43810;50.860;19.226;2023-03-16T14:14:49;99184.94;;;7.52;42.40
58018;BME280;43810;50.860;19.226;2023-03-16T14:17:20;99189.22;;;7.21;43.22
58018;BME280;43810;50.860;19.226;2023-03-16T14:19:50;99189.84;;;6.99;44.30